createdAt,value
2018-05-26T00:00:02.991Z,71.84
2018-05-26T00:02:30.541Z,71.30
2018-05-26T00:04:58.141Z,71.98
2018-05-26T00:07:25.799Z,72.13
2018-05-26T00:12:27.348Z,72.07
2018-05-26T00:14:54.912Z,72.17
2018-05-26T00:17:22.468Z,72.14
2018-05-26T00:19:50.045Z,71.96
2018-05-26T00:22:18.531Z,71.47
2018-05-26T00:24:46.141Z,71.14
2018-05-26T00:27:13.736Z,71.44
2018-05-26T00:29:41.320Z,71.97
2018-05-26T00:32:08.893Z,72.60
2018-05-26T00:34:36.455Z,72.75
2018-05-26T00:37:04.043Z,73.04
2018-05-26T00:39:31.708Z,73.15
2018-05-26T00:41:59.419Z,72.98
2018-05-26T00:44:27.049Z,72.96
2018-05-26T00:46:54.649Z,72.54
2018-05-26T00:49:22.211Z,72.66
2018-05-26T00:51:49.784Z,72.60
2018-05-26T00:54:17.364Z,72.91
2018-05-26T00:56:44.897Z,72.41
2018-05-26T00:59:12.447Z,72.42
2018-05-26T01:01:40.036Z,72.38
2018-05-26T01:04:07.629Z,72.52
2018-05-26T01:06:35.203Z,72.72
2018-05-26T01:09:02.823Z,72.87
2018-05-26T01:11:30.416Z,72.63
2018-05-26T01:13:58.017Z,73.09
2018-05-26T01:16:25.572Z,72.82
2018-05-26T01:18:53.161Z,72.94
2018-05-26T01:21:20.724Z,73.19
2018-05-26T01:23:48.305Z,73.08
2018-05-26T01:26:15.873Z,73.23
2018-05-26T01:28:43.362Z,73.37
2018-05-26T01:31:11.090Z,73.15
2018-05-26T01:33:38.629Z,73.34
2018-05-26T01:36:06.214Z,73.50
2018-05-26T01:38:33.767Z,73.36
2018-05-26T01:41:01.340Z,73.05
2018-05-26T01:43:28.922Z,73.09
2018-05-26T01:45:56.531Z,72.63
2018-05-26T01:48:24.119Z,73.13
2018-05-26T01:50:51.692Z,73.10
2018-05-26T01:53:19.255Z,72.43
2018-05-26T01:55:46.963Z,73.02
2018-05-26T01:58:14.572Z,73.23
2018-05-26T02:00:42.143Z,73.44
2018-05-26T02:05:41.836Z,73.44
2018-05-26T02:08:09.386Z,73.67
2018-05-26T02:10:36.967Z,73.31
2018-05-26T02:13:04.523Z,73.52
2018-05-26T02:15:32.793Z,73.59
2018-05-26T02:18:00.365Z,73.27
2018-05-26T02:20:28.109Z,73.61
2018-05-26T02:22:55.673Z,73.65
2018-05-26T02:25:23.373Z,73.40
2018-05-26T02:27:50.872Z,73.17
2018-05-26T02:30:18.424Z,73.16
2018-05-26T02:32:45.928Z,73.26
2018-05-26T02:35:13.408Z,73.28
2018-05-26T02:37:40.881Z,73.09
2018-05-26T02:40:08.409Z,73.19
2018-05-26T02:42:35.941Z,73.26
2018-05-26T02:45:03.476Z,73.34
2018-05-26T02:47:31.076Z,73.29
2018-05-26T02:49:58.621Z,73.33
2018-05-26T02:52:26.165Z,73.41
2018-05-26T02:54:53.721Z,73.33
2018-05-26T02:57:21.279Z,73.11
2018-05-26T02:59:48.863Z,73.17
2018-05-26T03:02:16.428Z,73.29
2018-05-26T03:04:49.424Z,73.47
2018-05-26T03:07:22.351Z,73.59
2018-05-26T03:09:55.458Z,73.55
2018-05-26T03:12:28.622Z,73.17
2018-05-26T03:14:55.645Z,73.04
2018-05-26T03:17:28.734Z,72.83
2018-05-26T03:19:56.309Z,72.84
2018-05-26T03:22:23.852Z,72.94
2018-05-26T03:24:51.406Z,72.64
2018-05-26T03:27:18.964Z,72.58
2018-05-26T03:29:46.643Z,73.23
2018-05-26T03:32:14.189Z,73.57
2018-05-26T03:34:41.741Z,73.61
2018-05-26T03:37:09.336Z,73.67
2018-05-26T03:39:36.904Z,73.79
2018-05-26T03:42:04.466Z,73.64
2018-05-26T03:44:32.059Z,73.33
2018-05-26T03:46:59.599Z,73.35
2018-05-26T03:49:27.139Z,73.35
2018-05-26T03:51:54.697Z,73.18
2018-05-26T03:54:22.239Z,73.12
2018-05-26T03:57:01.603Z,73.16
2018-05-26T03:59:41.000Z,73.10
2018-05-26T04:02:08.564Z,73.34
2018-05-26T04:04:36.136Z,73.35
2018-05-26T04:07:03.685Z,73.39
2018-05-26T04:09:31.411Z,73.27
2018-05-26T04:11:58.972Z,73.15
2018-05-26T04:14:26.565Z,73.05
2018-05-26T04:16:54.109Z,73.09
2018-05-26T04:19:21.700Z,73.05
2018-05-26T04:21:49.250Z,72.84
2018-05-26T04:24:16.831Z,73.20
2018-05-26T04:26:44.407Z,73.26
2018-05-26T04:29:12.543Z,73.48
2018-05-26T04:31:40.215Z,73.58
2018-05-26T04:34:07.797Z,73.71
2018-05-26T04:36:35.356Z,73.54
2018-05-26T04:39:02.973Z,73.33
2018-05-26T04:41:30.865Z,73.73
2018-05-26T04:43:58.431Z,73.59
2018-05-26T04:46:26.015Z,73.74
2018-05-26T04:48:53.612Z,73.74
2018-05-26T04:51:21.171Z,73.51
2018-05-26T04:53:48.762Z,73.23
2018-05-26T04:56:16.337Z,73.11
2018-05-26T04:58:43.897Z,73.07
2018-05-26T05:01:11.498Z,73.15
2018-05-26T05:03:39.069Z,73.06
2018-05-26T05:06:06.672Z,72.89
2018-05-26T05:08:34.264Z,72.75
2018-05-26T05:11:02.771Z,72.74
2018-05-26T05:13:30.390Z,72.85
2018-05-26T05:15:58.020Z,72.70
2018-05-26T05:18:25.612Z,72.60
2018-05-26T05:20:53.213Z,72.31
2018-05-26T05:23:20.862Z,72.02
2018-05-26T05:25:48.506Z,71.78
2018-05-26T05:28:16.072Z,71.49
2018-05-26T05:30:43.669Z,71.46
2018-05-26T05:33:11.238Z,72.02
2018-05-26T05:35:38.852Z,72.20
2018-05-26T05:38:06.438Z,72.36
2018-05-26T05:40:34.017Z,72.50
2018-05-26T05:43:01.633Z,72.67
2018-05-26T05:45:29.199Z,72.72
2018-05-26T05:47:57.712Z,73.14
2018-05-26T05:50:29.301Z,73.28
2018-05-26T05:52:57.177Z,73.08
2018-05-26T05:55:24.741Z,73.23
2018-05-26T05:57:52.362Z,74.78
2018-05-26T06:00:19.964Z,74.18
2018-05-26T06:02:47.536Z,74.00
2018-05-26T06:05:15.275Z,73.84
2018-05-26T06:07:42.861Z,73.64
2018-05-26T06:10:10.482Z,73.40
2018-05-26T06:12:38.105Z,72.94
2018-05-26T06:15:05.689Z,72.93
2018-05-26T06:17:33.283Z,72.43
2018-05-26T06:20:00.887Z,71.26
2018-05-26T06:22:28.482Z,70.43
2018-05-26T06:24:56.104Z,69.86
2018-05-26T06:27:23.734Z,70.24
2018-05-26T06:29:51.296Z,70.58
2018-05-26T06:32:18.889Z,70.99
2018-05-26T06:34:46.504Z,70.33
2018-05-26T06:37:14.083Z,71.14
2018-05-26T06:39:41.700Z,70.65
2018-05-26T06:42:09.292Z,71.42
2018-05-26T06:44:36.954Z,70.86
2018-05-26T06:47:04.578Z,69.74
2018-05-26T06:49:32.256Z,69.29
2018-05-26T06:51:59.855Z,68.26
2018-05-26T06:54:27.416Z,68.91
2018-05-26T06:56:55.046Z,68.15
2018-05-26T06:59:22.609Z,67.80
2018-05-26T07:01:50.161Z,67.76
2018-05-26T07:04:17.780Z,67.08
2018-05-26T07:06:45.368Z,66.57
2018-05-26T07:09:12.991Z,66.08
2018-05-26T07:11:40.569Z,64.89
2018-05-26T07:14:08.156Z,64.54
2018-05-26T07:16:35.827Z,63.92
2018-05-26T07:19:03.504Z,63.42
2018-05-26T07:21:31.258Z,63.23
2018-05-26T07:23:58.857Z,63.84
2018-05-26T07:26:26.492Z,63.25
2018-05-26T07:28:54.161Z,63.36
2018-05-26T07:31:25.333Z,62.60
2018-05-26T07:33:59.356Z,61.54
2018-05-26T07:36:27.103Z,61.04
2018-05-26T07:39:01.718Z,61.34
2018-05-26T07:41:29.302Z,61.33
2018-05-26T07:43:59.633Z,61.67
2018-05-26T07:46:27.336Z,62.51
2018-05-26T07:48:54.947Z,62.40
2018-05-26T07:51:22.516Z,62.70
2018-05-26T07:53:50.163Z,61.56
2018-05-26T07:56:17.849Z,61.15
2018-05-26T07:58:45.349Z,60.27
2018-05-26T08:01:13.299Z,60.33
2018-05-26T08:03:44.878Z,59.84
2018-05-26T08:06:12.493Z,60.06
2018-05-26T08:08:40.104Z,60.84
2018-05-26T08:11:07.870Z,60.00
2018-05-26T08:13:35.467Z,60.18
2018-05-26T08:16:03.040Z,59.70
2018-05-26T08:18:30.699Z,59.79
2018-05-26T08:20:58.309Z,58.20
2018-05-26T08:23:25.929Z,58.64
2018-05-26T08:25:53.567Z,57.54
2018-05-26T08:28:21.194Z,56.05
2018-05-26T08:30:48.847Z,53.87
2018-05-26T08:33:16.414Z,54.69
2018-05-26T08:35:44.111Z,55.41
2018-05-26T08:38:11.697Z,55.48
2018-05-26T08:40:39.316Z,55.82
2018-05-26T08:43:06.881Z,56.40
2018-05-26T08:45:34.513Z,55.47
2018-05-26T08:48:02.113Z,55.31
2018-05-26T08:50:29.773Z,55.33
2018-05-26T08:55:31.219Z,54.02
2018-05-26T08:57:58.945Z,52.80
2018-05-26T09:00:26.557Z,52.95
2018-05-26T09:02:54.138Z,51.71
2018-05-26T09:05:21.779Z,52.09
2018-05-26T09:07:49.413Z,51.75
2018-05-26T09:10:16.997Z,52.32
2018-05-26T09:12:44.670Z,53.33
2018-05-26T09:15:18.405Z,53.32
2018-05-26T09:17:46.021Z,52.71
2018-05-26T09:20:13.595Z,52.52
2018-05-26T09:22:41.253Z,50.45
2018-05-26T09:25:08.987Z,51.18
2018-05-26T09:27:52.915Z,50.05
2018-05-26T09:30:20.673Z,49.63
2018-05-26T09:32:49.282Z,49.42
2018-05-26T09:35:17.011Z,50.26
2018-05-26T09:37:44.680Z,49.86
2018-05-26T09:40:13.097Z,48.91
2018-05-26T09:42:40.766Z,49.73
2018-05-26T09:45:08.961Z,50.39
2018-05-26T09:47:36.699Z,50.80
2018-05-26T09:50:04.921Z,49.92
2018-05-26T09:52:34.707Z,50.34
2018-05-26T09:55:02.383Z,48.53
2018-05-26T09:57:34.218Z,49.18
2018-05-26T10:00:01.837Z,48.34
2018-05-26T10:02:29.456Z,47.54
2018-05-26T10:04:57.091Z,47.95
2018-05-26T10:07:25.488Z,47.77
2018-05-26T10:09:54.656Z,47.76
2018-05-26T10:12:22.642Z,46.13
2018-05-26T10:14:50.629Z,46.23
2018-05-26T10:17:18.360Z,45.25
2018-05-26T10:19:46.058Z,45.20
2018-05-26T10:24:48.332Z,46.30
2018-05-26T10:27:15.938Z,46.32
2018-05-26T10:29:44.392Z,46.16
2018-05-26T10:32:13.086Z,46.10
2018-05-26T10:34:40.684Z,46.32
2018-05-26T10:37:08.399Z,45.81
2018-05-26T10:39:36.958Z,46.21
2018-05-26T10:42:04.651Z,45.45
2018-05-26T10:44:32.420Z,44.37
2018-05-26T10:47:00.009Z,45.06
2018-05-26T10:49:27.827Z,45.43
2018-05-26T10:51:55.808Z,44.76
2018-05-26T10:54:23.480Z,44.33
2018-05-26T10:56:51.111Z,44.09
2018-05-26T10:59:19.761Z,44.16
2018-05-26T11:01:47.645Z,44.09
2018-05-26T11:04:15.304Z,44.05
2018-05-26T11:06:48.609Z,45.08
2018-05-26T11:09:17.637Z,45.05
2018-05-26T11:11:45.381Z,44.63
2018-05-26T11:14:13.054Z,43.81
2018-05-26T11:16:41.940Z,43.83
2018-05-26T11:19:09.960Z,43.41
2018-05-26T11:21:37.682Z,43.82
2018-05-26T11:24:06.560Z,41.94
2018-05-26T11:26:35.460Z,44.21
2018-05-26T11:29:03.076Z,44.56
2018-05-26T11:31:30.874Z,45.36
2018-05-26T11:33:58.587Z,43.69
2018-05-26T11:36:29.311Z,43.03
2018-05-26T11:38:56.990Z,44.24
2018-05-26T11:41:24.698Z,43.40
2018-05-26T11:43:54.303Z,43.67
2018-05-26T11:46:22.109Z,43.40
2018-05-26T11:48:50.510Z,43.31
2018-05-26T11:51:19.646Z,42.29
2018-05-26T11:53:50.196Z,41.13
2018-05-26T11:56:22.772Z,41.03
2018-05-26T11:58:50.441Z,41.75
2018-05-26T12:01:19.160Z,41.25
2018-05-26T12:03:47.759Z,42.14
2018-05-26T12:06:15.502Z,41.62
2018-05-26T12:08:44.141Z,42.29
2018-05-26T12:11:23.558Z,41.21
2018-05-26T12:13:51.286Z,41.47
2018-05-26T12:16:20.640Z,40.22
2018-05-26T12:18:49.799Z,40.79
2018-05-26T12:21:18.790Z,41.01
2018-05-26T12:23:47.761Z,40.61
2018-05-26T12:26:16.499Z,40.64
2018-05-26T12:28:49.967Z,40.75
2018-05-26T12:31:21.131Z,41.52
2018-05-26T12:36:37.358Z,40.69
2018-05-26T12:39:30.903Z,41.15
2018-05-26T12:42:01.588Z,40.56
2018-05-26T12:44:31.516Z,41.86
2018-05-26T12:47:03.581Z,41.75
2018-05-26T12:49:33.399Z,41.49
2018-05-26T12:52:18.574Z,40.89
2018-05-26T12:57:28.223Z,39.91
2018-05-26T13:00:04.376Z,40.98
2018-05-26T13:02:32.171Z,40.65
2018-05-26T13:05:10.115Z,40.07
2018-05-26T13:07:37.951Z,40.72
2018-05-26T13:10:08.415Z,40.94
2018-05-26T13:12:43.867Z,40.92
2018-05-26T13:17:53.619Z,42.02
2018-05-26T13:20:22.043Z,42.53
2018-05-26T13:23:05.448Z,41.86
2018-05-26T13:25:34.275Z,40.41
2018-05-26T13:28:05.295Z,41.22
2018-05-26T13:30:36.339Z,41.80
2018-05-26T13:33:07.922Z,42.51
2018-05-26T13:35:40.716Z,42.94
2018-05-26T13:38:08.868Z,42.87
2018-05-26T13:40:40.748Z,43.60
2018-05-26T13:43:12.893Z,44.04
2018-05-26T13:45:40.626Z,42.05
2018-05-26T13:48:21.128Z,42.58
2018-05-26T13:50:52.605Z,42.43
2018-05-26T13:53:24.202Z,42.35
2018-05-26T13:55:59.346Z,42.32
2018-05-26T13:58:29.166Z,41.05
2018-05-26T14:00:57.475Z,41.10
2018-05-26T14:03:25.708Z,41.39
2018-05-26T14:05:58.943Z,41.31
2018-05-26T14:08:27.433Z,41.99
2018-05-26T14:10:56.771Z,41.37
2018-05-26T14:13:27.634Z,41.07
2018-05-26T14:15:56.643Z,41.11
2018-05-26T14:18:24.362Z,40.45
2018-05-26T14:20:59.006Z,41.83
2018-05-26T14:23:28.133Z,41.75
2018-05-26T14:26:01.761Z,41.42
2018-05-26T14:28:37.391Z,41.41
2018-05-26T14:31:09.656Z,40.75
2018-05-26T14:33:39.255Z,40.93
2018-05-26T14:36:07.860Z,40.96
2018-05-26T14:38:38.060Z,40.81
2018-05-26T14:41:07.678Z,41.00
2018-05-26T14:43:42.642Z,40.88
2018-05-26T14:46:11.863Z,40.71
2018-05-26T14:48:46.114Z,39.94
2018-05-26T14:53:56.040Z,39.60
2018-05-26T14:56:27.331Z,39.61
2018-05-26T14:58:57.090Z,39.88
2018-05-26T15:01:31.050Z,39.54
2018-05-26T15:04:06.070Z,40.03
2018-05-26T15:06:43.520Z,39.98
2018-05-26T15:09:15.521Z,40.35
2018-05-26T15:11:50.732Z,40.90
2018-05-26T15:14:18.504Z,40.80
2018-05-26T15:16:52.461Z,41.17
2018-05-26T15:19:27.090Z,40.63
2018-05-26T15:21:56.858Z,40.43
2018-05-26T15:24:32.281Z,39.88
2018-05-26T15:27:02.401Z,39.79
2018-05-26T15:29:34.189Z,39.92
2018-05-26T15:32:09.736Z,39.78
2018-05-26T15:34:41.483Z,40.34
2018-05-26T15:37:16.437Z,40.40
2018-05-26T15:46:36.601Z,42.74
2018-05-26T15:49:05.288Z,42.52
2018-05-26T15:54:11.058Z,42.36
2018-05-26T15:56:44.309Z,41.71
2018-05-26T15:59:16.098Z,41.17
2018-05-26T16:01:44.741Z,41.19
2018-05-26T16:04:13.459Z,40.39
2018-05-26T16:06:44.275Z,41.75
2018-05-26T16:09:24.217Z,42.63
2018-05-26T16:14:46.136Z,42.80
2018-05-26T16:17:20.059Z,42.46
2018-05-26T16:19:51.607Z,42.38
2018-05-26T16:22:19.304Z,42.23
2018-05-26T16:24:48.930Z,42.66
2018-05-26T16:27:29.474Z,42.56
2018-05-26T16:29:58.919Z,42.58
2018-05-26T16:32:26.545Z,42.99
2018-05-26T16:34:54.147Z,42.72
2018-05-26T16:37:21.897Z,43.66
2018-05-26T16:39:54.693Z,44.15
2018-05-26T16:42:29.271Z,43.61
2018-05-26T16:45:03.093Z,43.69
2018-05-26T16:47:30.782Z,43.55
2018-05-26T16:50:01.072Z,43.20
2018-05-26T16:52:31.754Z,41.80
2018-05-26T16:55:02.956Z,41.59
2018-05-26T16:57:30.639Z,42.12
2018-05-26T16:59:58.341Z,42.80
2018-05-26T17:02:26.025Z,43.18
2018-05-26T17:05:00.941Z,43.21
2018-05-26T17:07:31.279Z,43.40
2018-05-26T17:10:00.570Z,43.27
2018-05-26T17:12:28.239Z,43.29
2018-05-26T17:14:57.516Z,43.25
2018-05-26T17:20:16.133Z,43.32
2018-05-26T17:22:44.961Z,43.41
2018-05-26T17:25:14.742Z,43.32
2018-05-26T17:27:43.207Z,43.45
2018-05-26T17:30:12.788Z,43.87
2018-05-26T17:32:41.267Z,44.26
2018-05-26T17:35:13.110Z,44.14
2018-05-26T17:40:17.841Z,45.40
2018-05-26T17:42:46.560Z,45.73
2018-05-26T17:45:15.150Z,45.91
2018-05-26T17:47:44.160Z,46.11
2018-05-26T17:50:12.596Z,46.31
2018-05-26T17:52:40.344Z,46.38
2018-05-26T17:55:11.277Z,46.66
2018-05-26T17:57:40.927Z,46.75
2018-05-26T18:00:08.723Z,46.90
2018-05-26T18:02:37.232Z,47.23
2018-05-26T18:05:04.988Z,47.66
2018-05-26T18:07:34.534Z,47.95
2018-05-26T18:10:03.408Z,48.08
2018-05-26T18:12:34.631Z,49.02
2018-05-26T18:15:02.361Z,49.59
2018-05-26T18:17:33.374Z,49.73
2018-05-26T18:20:01.171Z,50.24
2018-05-26T18:22:29.167Z,50.43
2018-05-26T18:24:57.510Z,50.75
2018-05-26T18:27:28.245Z,51.07
2018-05-26T18:29:56.721Z,51.22
2018-05-26T18:32:24.574Z,51.51
2018-05-26T18:34:53.129Z,51.71
2018-05-26T18:37:22.249Z,51.72
2018-05-26T18:39:49.863Z,51.77
2018-05-26T18:42:19.305Z,51.80
2018-05-26T18:44:46.982Z,52.00
2018-05-26T18:47:16.417Z,52.12
2018-05-26T18:49:44.750Z,52.38
2018-05-26T18:52:12.437Z,52.84
2018-05-26T18:54:40.320Z,53.13
2018-05-26T18:57:16.125Z,53.67
2018-05-26T18:59:43.925Z,53.83
2018-05-26T19:02:11.767Z,53.97
2018-05-26T19:04:40.429Z,54.12
2018-05-26T19:07:08.108Z,54.58
2018-05-26T19:09:35.887Z,54.76
2018-05-26T19:12:03.610Z,55.17
2018-05-26T19:14:31.291Z,55.23
2018-05-26T19:16:59.072Z,55.50
2018-05-26T19:19:26.849Z,56.10
2018-05-26T19:21:55.294Z,56.55
2018-05-26T19:24:23.988Z,56.73
2018-05-26T19:26:51.774Z,56.87
2018-05-26T19:29:19.741Z,57.00
2018-05-26T19:31:48.976Z,56.87
2018-05-26T19:34:17.500Z,56.75
2018-05-26T19:36:45.591Z,56.48
2018-05-26T19:39:15.114Z,56.36
2018-05-26T19:41:42.798Z,56.49
2018-05-26T19:44:11.752Z,56.68
2018-05-26T19:46:39.411Z,56.68
2018-05-26T19:49:07.062Z,56.79
2018-05-26T19:51:35.962Z,57.14
2018-05-26T19:54:03.718Z,57.23
2018-05-26T19:56:32.143Z,57.25
2018-05-26T19:59:00.678Z,57.30
2018-05-26T20:01:28.664Z,57.45
2018-05-26T20:03:56.323Z,57.59
2018-05-26T20:06:23.995Z,57.78
2018-05-26T20:08:51.730Z,57.83
2018-05-26T20:11:20.152Z,57.90
2018-05-26T20:13:48.868Z,58.19
2018-05-26T20:16:16.697Z,58.34
2018-05-26T20:18:44.448Z,58.47
2018-05-26T20:21:13.578Z,58.54
2018-05-26T20:23:41.257Z,58.77
2018-05-26T20:26:08.974Z,58.84
2018-05-26T20:28:36.864Z,58.71
2018-05-26T20:31:04.655Z,58.83
2018-05-26T20:33:33.801Z,59.05
2018-05-26T20:36:01.498Z,59.18
2018-05-26T20:38:29.310Z,59.36
2018-05-26T20:40:57.031Z,59.35
2018-05-26T20:43:26.462Z,59.82
2018-05-26T20:45:54.289Z,59.94
2018-05-26T20:48:22.597Z,59.80
2018-05-26T20:50:50.265Z,60.26
2018-05-26T20:53:18.480Z,60.21
2018-05-26T20:55:46.140Z,60.20
2018-05-26T20:58:14.634Z,60.15
2018-05-26T21:00:42.294Z,60.05
2018-05-26T21:03:11.085Z,60.20
2018-05-26T21:05:42.540Z,60.30
2018-05-26T21:08:11.243Z,60.25
2018-05-26T21:10:38.945Z,60.15
2018-05-26T21:13:07.684Z,60.30
2018-05-26T21:15:35.373Z,60.54
2018-05-26T21:18:02.931Z,60.68
2018-05-26T21:20:31.873Z,61.08
2018-05-26T21:23:00.866Z,61.10
2018-05-26T21:25:28.666Z,60.99
2018-05-26T21:27:56.475Z,61.09
2018-05-26T21:30:24.263Z,61.08
2018-05-26T21:32:52.070Z,60.82
2018-05-26T21:35:21.346Z,61.32
2018-05-26T21:37:50.078Z,61.33
2018-05-26T21:40:17.875Z,61.41
2018-05-26T21:42:45.757Z,61.22
2018-05-26T21:45:13.386Z,61.83
2018-05-26T21:47:40.977Z,62.18
2018-05-26T21:50:10.002Z,62.03
2018-05-26T21:52:37.949Z,62.25
2018-05-26T21:55:06.626Z,62.41
2018-05-26T21:57:34.834Z,62.86
2018-05-26T22:00:02.608Z,63.24
2018-05-26T22:02:30.813Z,63.42
2018-05-26T22:04:58.584Z,63.40
2018-05-26T22:07:28.400Z,63.94
2018-05-26T22:09:56.059Z,64.32
2018-05-26T22:12:23.803Z,64.28
2018-05-26T22:14:51.518Z,63.80
2018-05-26T22:17:20.826Z,63.54
2018-05-26T22:19:48.490Z,63.20
2018-05-26T22:22:16.043Z,62.91
2018-05-26T22:24:43.694Z,63.63
2018-05-26T22:27:11.870Z,63.18
2018-05-26T22:29:39.640Z,63.87
2018-05-26T22:32:07.877Z,64.19
2018-05-26T22:34:35.629Z,63.94
2018-05-26T22:37:03.307Z,64.40
2018-05-26T22:39:31.002Z,65.03
2018-05-26T22:41:58.717Z,64.83
2018-05-26T22:44:26.410Z,65.22
2018-05-26T22:46:54.094Z,65.62
2018-05-26T22:49:22.135Z,65.49
2018-05-26T22:54:24.560Z,64.99
2018-05-26T22:56:52.201Z,65.15
2018-05-26T22:59:19.966Z,65.29
2018-05-26T23:01:47.647Z,65.30
2018-05-26T23:04:15.270Z,65.17
2018-05-26T23:06:42.908Z,64.61
2018-05-26T23:09:11.001Z,64.68
2018-05-26T23:11:38.669Z,65.11
2018-05-26T23:14:06.340Z,65.62
2018-05-26T23:16:33.853Z,65.62
2018-05-26T23:19:01.450Z,65.75
2018-05-26T23:21:29.008Z,65.16
2018-05-26T23:23:56.647Z,65.62
2018-05-26T23:26:24.475Z,65.88
2018-05-26T23:28:52.168Z,65.79
2018-05-26T23:31:19.932Z,65.49
2018-05-26T23:33:47.588Z,65.63
2018-05-26T23:36:15.206Z,66.27
2018-05-26T23:38:42.948Z,66.58
2018-05-26T23:41:11.378Z,66.78
2018-05-26T23:43:38.976Z,66.70
2018-05-26T23:46:07.759Z,66.71
2018-05-26T23:48:35.611Z,66.46
2018-05-26T23:51:03.185Z,66.29
2018-05-26T23:53:31.362Z,66.62
2018-05-26T23:55:59.036Z,66.80
2018-05-26T23:58:26.776Z,66.42
